Time;durP1;ratioP1;P1;durP2;ratioP2;P2;SDS_P1;SDS_P2;PMS_P1;PMS_P2;Temp;Humidity;BMP_temperature;BMP_pressure;BME280_temperature;BME280_humidity;BME280_pressure;Samples;Min_cycle;Max_cycle;Signal;HPM_P1;HPM_P2
2022/01/24 00:01:06;;;;;;;17.63;13.40;;;;;;;1.55;44.35;102361.00;5066259;28;20873;-75
2022/01/24 00:03:33;;;;;;;24.25;17.50;;;;;;;1.45;44.71;102361.19;5066969;28;20407;-76
2022/01/24 00:06:00;;;;;;;18.63;14.68;;;;;;;1.79;44.12;102367.50;5066483;28;21019;-76
2022/01/24 00:08:28;;;;;;;18.42;13.40;;;;;;;1.86;44.01;102375.22;5066311;28;20418;-78
2022/01/24 00:11:04;;;;;;;20.52;14.60;;;;;;;1.66;44.47;102379.06;5070483;28;20443;-78
2022/01/24 00:16:24;;;;;;;19.33;14.20;;;;;;;1.53;44.86;102385.41;5040688;28;20431;-77
2022/01/24 00:27:06;;;;;;;35.70;23.67;;;;;;;1.15;45.81;102406.06;5071753;28;20506;-77
2022/01/24 00:29:33;;;;;;;21.40;14.98;;;;;;;1.38;45.46;102408.31;5071936;28;20506;-77
2022/01/24 00:32:00;;;;;;;23.55;16.85;;;;;;;1.70;44.70;102413.84;5072012;28;20453;-76
2022/01/24 00:34:27;;;;;;;18.48;12.45;;;;;;;1.69;44.29;102409.53;5072015;28;20498;-77
2022/01/24 00:36:54;;;;;;;16.58;12.30;;;;;;;1.30;45.26;102407.59;5071511;28;20502;-77
2022/01/24 00:39:23;;;;;;;28.23;20.17;;;;;;;1.57;44.92;102416.69;5071852;28;20415;-78
2022/01/24 00:42:02;;;;;;;78.93;45.42;;;;;;;1.37;45.29;102417.03;5051201;28;20407;-77
2022/01/24 00:44:50;;;;;;;18.53;13.47;;;;;;;1.66;44.83;102415.63;5071571;28;25120;-77
2022/01/24 00:47:23;;;;;;;15.55;12.02;;;;;;;1.74;44.69;102424.19;5071198;28;20859;-76
2022/01/24 00:53:00;;;;;;;15.50;11.88;;;;;;;1.52;44.73;102422.88;5071255;28;20422;-76
2022/01/24 00:55:27;;;;;;;26.48;18.70;;;;;;;1.61;44.76;102422.72;5071194;28;20433;-77
2022/01/24 00:57:54;;;;;;;20.05;17.25;;;;;;;1.70;44.66;102427.75;5071200;28;20991;-76
2022/01/24 01:00:23;;;;;;;19.42;15.80;;;;;;;1.56;44.69;102434.97;5070737;28;20421;-74
2022/01/24 01:02:50;;;;;;;28.35;20.73;;;;;;;1.55;44.86;102428.06;5071472;28;20482;-77
2022/01/24 01:05:33;;;;;;;18.70;14.97;;;;;;;1.51;44.96;102424.63;5070964;28;20981;-76
2022/01/24 01:18:04;;;;;;;19.13;14.52;;;;;;;1.48;44.99;102429.03;5070986;28;20427;-77
2022/01/24 01:19:04;;;;;;;18.25;13.10;;;;;;;1.23;44.83;102444.25;5070320;28;20492;-77
2022/01/24 01:21:31;;;;;;;18.23;13.38;;;;;;;1.23;45.06;102434.66;5069927;28;20538;-76
2022/01/24 01:23:59;;;;;;;17.10;12.65;;;;;;;1.12;44.88;102428.78;5052351;28;20414;-76
2022/01/24 01:26:32;;;;;;;23.88;15.65;;;;;;;1.23;44.53;102437.28;5069815;28;20455;-76
2022/01/24 01:29:03;;;;;;;20.48;12.90;;;;;;;0.87;44.78;102439.56;5069973;28;20463;-77
2022/01/24 01:31:41;;;;;;;21.63;13.38;;;;;;;0.80;44.93;102437.94;5069955;28;20468;-76
2022/01/24 01:34:21;;;;;;;18.33;12.45;;;;;;;0.97;44.23;102428.13;5069752;28;20487;-77
2022/01/24 01:37:13;;;;;;;14.63;11.23;;;;;;;1.02;44.11;102440.25;5069900;28;20492;-76
2022/01/24 01:40:11;;;;;;;15.77;10.90;;;;;;;0.99;44.33;102439.41;5069636;28;20460;-77
2022/01/24 01:54:01;;;;;;;13.50;10.10;;;;;;;0.98;43.92;102452.47;5070397;28;20447;-77
2022/01/24 01:56:27;;;;;;;15.30;10.83;;;;;;;0.86;44.12;102453.50;5055779;28;20496;-77
2022/01/24 01:58:54;;;;;;;17.42;11.50;;;;;;;0.66;44.59;102455.53;5070000;28;20410;-76
2022/01/24 02:01:21;;;;;;;19.13;13.07;;;;;;;0.82;44.45;102457.06;5068676;28;20809;-75
2022/01/24 02:03:54;;;;;;;19.60;13.43;;;;;;;0.98;44.09;102462.91;5070145;28;20422;-76
2022/01/24 02:06:21;;;;;;;16.33;12.20;;;;;;;0.96;44.14;102469.91;5069804;28;20933;-77
2022/01/24 02:08:48;;;;;;;16.95;12.95;;;;;;;1.20;43.61;102464.31;5070915;28;20414;-77
2022/01/24 02:11:16;;;;;;;20.42;13.75;;;;;;;1.13;43.60;102469.63;5070111;28;20415;-77
2022/01/24 02:13:47;;;;;;;17.83;13.48;;;;;;;1.30;43.23;102469.38;5069836;28;20411;-77
2022/01/24 02:16:21;;;;;;;18.60;13.80;;;;;;;1.10;43.55;102472.31;5051735;28;21050;-76
2022/01/24 02:19:07;;;;;;;20.85;14.73;;;;;;;1.33;43.21;102470.19;5051999;28;20464;-76
2022/01/24 02:21:44;;;;;;;19.38;14.32;;;;;;;1.13;43.57;102467.88;5069387;28;20772;-78
2022/01/24 02:24:13;;;;;;;17.30;13.30;;;;;;;1.32;43.36;102471.09;5069535;28;20508;-77
2022/01/24 02:26:40;;;;;;;18.45;13.98;;;;;;;1.30;43.29;102471.97;5069514;28;20415;-77
2022/01/24 02:29:12;;;;;;;18.10;12.98;;;;;;;1.17;43.93;102479.16;5069387;28;20476;-76
2022/01/24 02:31:46;;;;;;;16.60;12.30;;;;;;;1.19;44.37;102480.00;5052500;28;20452;-77
2022/01/24 02:34:24;;;;;;;18.58;12.45;;;;;;;1.14;44.52;102487.03;5068865;28;20499;-75
2022/01/24 02:36:54;;;;;;;16.92;11.95;;;;;;;1.02;45.08;102487.22;5069693;28;20450;-76
2022/01/24 02:39:44;;;;;;;14.15;11.13;;;;;;;0.79;46.32;102493.59;5069308;28;20442;-76
2022/01/24 02:50:43;;;;;;;18.27;14.05;;;;;;;1.26;45.54;102504.25;5069478;28;20961;-76
2022/01/24 02:53:11;;;;;;;16.52;13.55;;;;;;;1.14;45.89;102510.53;5069216;28;20415;-72
2022/01/24 02:55:40;;;;;;;15.75;11.60;;;;;;;0.92;47.04;102509.97;5068238;28;20469;-76
2022/01/24 02:58:07;;;;;;;14.00;11.10;;;;;;;0.67;48.08;102505.09;5035542;28;20446;-76
2022/01/24 03:00:35;;;;;;;12.63;10.90;;;;;;;0.57;49.00;102519.97;5069522;28;20403;-77
2022/01/24 03:03:03;;;;;;;14.68;11.10;;;;;;;0.59;49.62;102523.44;5069226;28;20992;-77
2022/01/24 03:05:30;;;;;;;13.85;11.05;;;;;;;0.48;49.94;102527.91;5069534;28;20414;-76
2022/01/24 03:07:57;;;;;;;14.50;11.68;;;;;;;0.56;50.23;102526.06;5069618;28;20414;-77
2022/01/24 03:10:28;;;;;;;14.98;11.85;;;;;;;0.58;50.42;102529.50;5069442;28;20407;-76
2022/01/24 03:13:10;;;;;;;16.00;12.57;;;;;;;0.31;50.37;102535.91;5069537;28;20493;-75
2022/01/24 03:15:37;;;;;;;15.23;12.65;;;;;;;0.30;51.10;102539.41;5068990;28;20431;-75
2022/01/24 03:18:05;;;;;;;15.32;12.73;;;;;;;0.53;50.87;102543.50;5069269;28;20418;-76
2022/01/24 03:20:32;;;;;;;16.08;12.95;;;;;;;0.41;51.45;102547.13;5068893;28;20422;-76
2022/01/24 03:22:59;;;;;;;16.33;13.30;;;;;;;0.44;51.62;102548.81;5068926;28;20461;-74
2022/01/24 03:25:28;;;;;;;18.15;14.18;;;;;;;0.47;51.42;102552.28;5069387;28;20414;-75
2022/01/24 03:27:55;;;;;;;19.17;14.68;;;;;;;0.40;52.19;102558.41;5069142;28;20494;-74
2022/01/24 03:30:22;;;;;;;17.63;14.52;;;;;;;0.14;52.91;102562.19;5068781;28;20498;-75
2022/01/24 03:32:50;;;;;;;19.47;15.03;;;;;;;0.06;53.41;102561.38;5068892;28;20992;-76
2022/01/24 03:35:17;;;;;;;17.00;13.85;;;;;;;-0.03;53.21;102566.66;5068734;28;20928;-75
2022/01/24 03:37:44;;;;;;;17.80;14.20;;;;;;;0.08;53.46;102561.34;5068729;28;20420;-76
2022/01/24 03:40:11;;;;;;;17.55;14.10;;;;;;;-0.03;53.74;102564.06;5069077;28;20453;-76
2022/01/24 03:42:40;;;;;;;16.73;14.07;;;;;;;0.05;53.72;102580.50;5051312;28;20415;-76
2022/01/24 03:45:10;;;;;;;19.17;15.15;;;;;;;-0.23;54.93;102575.50;5069216;28;20487;-76
2022/01/24 03:47:56;;;;;;;16.92;15.13;;;;;;;-0.22;55.35;102573.78;5072839;28;20459;-76
2022/01/24 03:50:23;;;;;;;20.58;16.08;;;;;;;-0.28;56.54;102579.03;5072648;28;20438;-77
2022/01/24 03:52:51;;;;;;;20.48;16.50;;;;;;;-0.23;56.51;102577.25;5071956;28;20442;-76
2022/01/24 03:55:18;;;;;;;20.00;16.67;;;;;;;-0.15;56.36;102583.25;5072262;28;20428;-76
2022/01/24 03:57:46;;;;;;;45.67;35.78;;;;;;;-0.18;57.11;102590.22;5072600;28;20434;-77
2022/01/24 04:00:14;;;;;;;22.33;18.70;;;;;;;-0.25;57.41;102595.50;5072775;28;20428;-77
2022/01/24 04:02:42;;;;;;;21.03;17.37;;;;;;;-0.13;57.27;102593.69;5072443;28;20483;-77
2022/01/24 04:05:09;;;;;;;20.77;17.08;;;;;;;0.07;56.70;102596.97;5070742;28;20458;-75
2022/01/24 04:07:37;;;;;;;20.42;17.02;;;;;;;0.15;56.50;102594.31;5072210;28;20415;-77
2022/01/24 04:10:07;;;;;;;20.73;17.27;;;;;;;0.15;56.21;102604.72;5071978;28;20976;-78
2022/01/24 04:12:37;;;;;;;20.15;17.48;;;;;;;0.03;56.40;102604.84;5071854;28;20958;-77
2022/01/24 04:15:12;;;;;;;20.58;17.63;;;;;;;-0.15;56.88;102608.47;5071884;28;20957;-77
2022/01/24 04:17:43;;;;;;;19.25;17.10;;;;;;;-0.12;56.74;102621.44;5071248;28;20430;-77
2022/01/24 04:22:58;;;;;;;21.27;17.33;;;;;;;-0.04;57.26;102623.13;5071852;28;20543;-76
2022/01/24 04:25:25;;;;;;;21.88;16.83;;;;;;;-0.04;56.84;102623.13;5071833;28;20485;-78
2022/01/24 04:27:56;;;;;;;19.95;16.42;;;;;;;-0.13;56.57;102620.59;5071765;28;20422;-75
2022/01/24 04:30:24;;;;;;;22.27;17.67;;;;;;;-0.05;56.87;102629.22;5071330;28;20503;-76
2022/01/24 04:32:51;;;;;;;19.95;17.02;;;;;;;-0.12;57.29;102635.34;5072092;28;20448;-77
2022/01/24 04:35:18;;;;;;;20.95;17.65;;;;;;;0.08;56.75;102637.81;5071670;28;20450;-77
2022/01/24 04:37:45;;;;;;;28.92;21.67;;;;;;;0.11;55.97;102631.69;5071360;28;20803;-78
2022/01/24 04:40:12;;;;;;;23.33;19.10;;;;;;;0.01;56.22;102633.50;5071326;28;20500;-75
2022/01/24 04:42:54;;;;;;;25.85;20.73;;;;;;;0.03;56.57;102646.53;5049533;28;20775;-77
2022/01/24 04:45:31;;;;;;;36.22;26.67;;;;;;;-0.02;56.86;102639.63;5071274;28;20458;-76
2022/01/24 04:51:04;;;;;;;21.77;18.80;;;;;;;0.10;56.33;102658.63;5069108;28;20458;-76
2022/01/24 04:53:50;;;;;;;24.35;19.52;;;;;;;-0.22;56.88;102663.22;5070434;28;20467;-77
2022/01/24 04:56:17;;;;;;;26.60;21.27;;;;;;;-0.21;56.89;102664.91;5070062;28;20907;-76
2022/01/24 04:58:44;;;;;;;21.38;18.10;;;;;;;-0.24;56.94;102664.09;5071013;28;21541;-77
2022/01/24 05:01:12;;;;;;;27.30;22.70;;;;;;;-0.11;56.77;102665.72;5072135;28;20415;-76
2022/01/24 05:03:41;;;;;;;24.73;20.30;;;;;;;-0.33;56.78;102665.00;5071112;28;20425;-76
2022/01/24 05:06:07;;;;;;;26.88;21.58;;;;;;;-0.27;56.71;102675.38;5053044;28;20413;-76
2022/01/24 05:08:34;;;;;;;23.35;19.05;;;;;;;-0.31;57.21;102668.47;5070429;28;20489;-77
2022/01/24 05:11:06;;;;;;;25.70;20.38;;;;;;;-0.27;56.72;102680.59;5071269;28;20513;-77
2022/01/24 05:24:24;;;;;;;22.52;18.83;;;;;;;-0.09;56.66;102697.84;5047821;28;20444;-77
2022/01/24 05:26:51;;;;;;;23.02;19.35;;;;;;;0.12;56.43;102702.06;5070753;28;20421;-77
2022/01/24 05:29:18;;;;;;;21.88;17.67;;;;;;;-0.10;56.57;102710.88;5070800;28;20928;-77
2022/01/24 05:31:45;;;;;;;22.87;19.57;;;;;;;-0.03;56.83;102716.03;5053016;28;20502;-75
2022/01/24 05:34:14;;;;;;;22.70;19.02;;;;;;;0.10;56.73;102715.97;5069525;28;20494;-75
2022/01/24 05:36:41;;;;;;;26.67;21.08;;;;;;;0.12;56.71;102715.09;5070510;28;20466;-77
2022/01/24 05:39:08;;;;;;;22.48;19.38;;;;;;;0.10;56.62;102729.88;5070690;28;20426;-77
2022/01/24 05:41:37;;;;;;;25.48;22.25;;;;;;;0.07;57.01;102727.28;5070501;28;20422;-76
2022/01/24 05:44:04;;;;;;;21.55;18.50;;;;;;;-0.19;57.32;102737.00;5070544;28;20487;-76
2022/01/24 05:46:31;;;;;;;23.40;19.35;;;;;;;0.29;56.91;102733.22;5069778;28;20484;-76
2022/01/24 05:48:58;;;;;;;23.40;18.80;;;;;;;0.37;56.26;102746.19;5070606;28;20414;-76
2022/01/24 05:51:28;;;;;;;23.45;19.73;;;;;;;0.33;55.96;102739.28;5070511;28;20777;-76
2022/01/24 05:53:55;;;;;;;29.67;24.13;;;;;;;0.25;56.60;102749.75;5069951;28;20464;-75
2022/01/24 05:56:22;;;;;;;24.55;21.92;;;;;;;0.48;55.97;102746.97;5069449;28;21011;-74
2022/01/24 05:58:49;;;;;;;22.57;20.10;;;;;;;0.45;56.06;102746.16;5068764;28;20411;-75
2022/01/24 06:01:16;;;;;;;22.73;19.05;;;;;;;0.45;56.20;102759.19;5050731;28;20415;-74
2022/01/24 06:03:44;;;;;;;25.05;21.55;;;;;;;0.78;55.24;102760.63;5068077;28;20410;-73
2022/01/24 06:06:11;;;;;;;26.93;24.00;;;;;;;0.84;54.97;102770.16;5068448;28;20494;-73
2022/01/24 06:08:39;;;;;;;25.58;21.75;;;;;;;0.69;55.05;102769.41;5068932;28;20490;-75
2022/01/24 06:11:06;;;;;;;31.88;25.13;;;;;;;0.67;55.18;102770.28;5070030;28;20403;-75
2022/01/24 06:13:33;;;;;;;25.63;20.70;;;;;;;0.46;55.11;102772.19;5069570;28;20408;-76
2022/01/24 06:16:00;;;;;;;22.98;19.98;;;;;;;0.57;55.11;102779.94;5069689;28;20413;-77
2022/01/24 06:18:27;;;;;;;21.63;19.13;;;;;;;0.50;54.80;102783.47;5069483;28;20431;-76
2022/01/24 06:20:54;;;;;;;17.77;15.90;;;;;;;0.51;54.82;102793.03;5070031;28;20426;-74
2022/01/24 06:23:22;;;;;;;21.60;18.30;;;;;;;0.47;54.76;102797.41;5069814;28;20422;-75
2022/01/24 06:25:50;;;;;;;20.85;18.02;;;;;;;0.58;54.56;102798.16;5068206;28;20410;-75
2022/01/24 06:28:18;;;;;;;23.92;19.63;;;;;;;0.76;54.48;102801.53;5068561;28;20539;-74
2022/01/24 06:30:45;;;;;;;22.57;18.60;;;;;;;1.05;53.38;102801.25;5067787;28;20452;-76
2022/01/24 06:33:12;;;;;;;22.83;19.48;;;;;;;0.96;53.67;102804.81;5068151;28;20501;-74
2022/01/24 06:35:39;;;;;;;23.95;20.45;;;;;;;1.18;53.18;102804.63;5069162;28;20980;-77
2022/01/24 06:38:06;;;;;;;21.88;17.67;;;;;;;1.32;52.58;102812.31;5068508;28;20438;-75
2022/01/24 06:40:33;;;;;;;19.63;17.35;;;;;;;1.19;52.84;102822.00;5069398;28;20994;-77
2022/01/24 06:43:01;;;;;;;19.35;16.77;;;;;;;1.25;52.54;102824.56;5068605;28;20418;-76
2022/01/24 06:45:28;;;;;;;19.48;17.38;;;;;;;1.38;52.18;102822.69;5069740;28;20475;-76
2022/01/24 06:47:55;;;;;;;20.33;18.05;;;;;;;1.24;52.39;102829.78;5069801;28;20437;-77
2022/01/24 06:50:22;;;;;;;22.15;19.02;;;;;;;1.49;51.92;102830.41;5069792;28;20421;-76
2022/01/24 06:52:49;;;;;;;24.05;20.88;;;;;;;1.78;51.47;102833.56;5069463;28;20418;-76
2022/01/24 06:55:16;;;;;;;25.95;21.95;;;;;;;1.75;50.91;102840.56;5069221;28;20415;-77
2022/01/24 06:57:43;;;;;;;28.00;22.45;;;;;;;1.20;51.54;102844.63;5069222;28;20431;-77
2022/01/24 07:00:12;;;;;;;31.52;24.40;;;;;;;1.30;51.76;102842.78;5069802;28;20425;-76
2022/01/24 07:02:39;;;;;;;30.85;24.63;;;;;;;1.37;51.21;102847.94;5069156;28;20434;-76
2022/01/24 07:05:07;;;;;;;32.20;26.08;;;;;;;1.41;51.27;102848.78;5068947;28;20443;-76
2022/01/24 07:07:34;;;;;;;35.40;26.40;;;;;;;1.65;51.28;102847.66;5069706;28;20407;-78
2022/01/24 07:10:01;;;;;;;45.35;31.98;;;;;;;1.55;51.23;102854.72;5068576;28;20422;-74
2022/01/24 07:12:28;;;;;;;63.45;54.42;;;;;;;1.25;52.23;102863.72;5068760;28;20929;-72
2022/01/24 07:14:56;;;;;;;41.72;34.38;;;;;;;1.36;52.55;102856.66;5068613;28;20849;-75
2022/01/24 07:17:45;;;;;;;38.67;31.73;;;;;;;1.55;51.54;102856.47;5069127;28;20809;-75
2022/01/24 07:20:12;;;;;;;35.25;30.30;;;;;;;1.77;50.98;102863.19;5071714;28;20426;-75
2022/01/24 07:22:39;;;;;;;36.13;28.90;;;;;;;1.65;50.96;102868.53;5073356;28;20439;-75
2022/01/24 07:25:07;;;;;;;31.08;25.02;;;;;;;1.83;50.49;102861.41;5073230;28;20438;-75
2022/01/24 07:27:34;;;;;;;23.92;19.98;;;;;;;1.41;50.50;102882.72;5073360;28;20490;-75
2022/01/24 07:30:01;;;;;;;21.60;17.52;;;;;;;0.93;52.22;102877.94;5073237;28;20411;-75
2022/01/24 07:32:30;;;;;;;21.15;17.17;;;;;;;0.89;52.41;102885.78;5073122;28;20415;-76
2022/01/24 07:34:58;;;;;;;25.35;19.08;;;;;;;1.00;52.39;102892.66;5073093;28;20409;-76
2022/01/24 07:37:25;;;;;;;24.88;19.33;;;;;;;1.35;52.03;102888.88;5072988;28;20426;-75
2022/01/24 07:39:53;;;;;;;26.90;21.13;;;;;;;1.66;51.72;102896.38;5072738;28;20410;-75
2022/01/24 07:42:28;;;;;;;24.30;20.08;;;;;;;1.85;51.12;102891.00;5072994;28;20414;-76
2022/01/24 07:44:56;;;;;;;25.25;20.63;;;;;;;1.77;51.59;102898.91;5072936;28;20442;-74
2022/01/24 07:47:23;;;;;;;19.60;16.08;;;;;;;1.76;51.46;102889.31;5072914;28;20513;-75
2022/01/24 07:49:51;;;;;;;20.80;17.37;;;;;;;1.38;52.59;102899.28;5072924;28;20414;-75
2022/01/24 07:52:18;;;;;;;21.48;18.50;;;;;;;1.52;52.31;102903.50;5072779;28;20494;-75
2022/01/24 07:54:45;;;;;;;22.50;19.33;;;;;;;1.47;52.12;102903.56;5072747;28;20442;-75
2022/01/24 07:57:12;;;;;;;23.75;19.58;;;;;;;1.58;52.54;102909.56;5072411;28;20430;-75
2022/01/24 07:59:39;;;;;;;23.80;19.67;;;;;;;1.35;53.00;102912.38;5072586;28;20411;-75
2022/01/24 08:02:06;;;;;;;26.15;20.98;;;;;;;1.45;53.02;102927.97;5070642;28;20414;-75
2022/01/24 08:04:33;;;;;;;27.73;20.00;;;;;;;1.52;52.81;102932.25;5072470;28;20425;-75
2022/01/24 08:07:01;;;;;;;27.85;22.27;;;;;;;2.30;51.48;102930.53;5072430;28;20912;-75
2022/01/24 08:09:28;;;;;;;21.33;18.13;;;;;;;2.32;50.11;102939.22;5072208;28;20415;-75
2022/01/24 08:11:56;;;;;;;24.10;19.13;;;;;;;2.38;50.33;102944.38;5072087;28;20485;-77
2022/01/24 08:14:23;;;;;;;22.08;18.33;;;;;;;2.09;50.28;102948.22;5054206;28;20406;-75
2022/01/24 08:16:50;;;;;;;30.10;23.98;;;;;;;1.79;51.21;102944.19;5071628;28;20938;-74
2022/01/24 08:19:17;;;;;;;29.13;23.67;;;;;;;2.18;51.12;102942.88;5071691;28;20501;-75
2022/01/24 08:21:45;;;;;;;29.33;23.15;;;;;;;2.32;50.70;102960.16;5072569;28;20497;-74
2022/01/24 08:24:14;;;;;;;27.25;23.38;;;;;;;2.58;50.41;102965.06;5072056;28;20415;-73
2022/01/24 08:26:41;;;;;;;24.95;21.33;;;;;;;3.17;48.31;102962.47;5071666;28;20493;-74
2022/01/24 08:29:08;;;;;;;23.15;20.65;;;;;;;3.52;47.68;102958.38;5072369;28;20493;-75
2022/01/24 08:31:37;;;;;;;25.08;21.10;;;;;;;4.09;46.46;102965.19;5071588;28;20490;-75
2022/01/24 08:34:04;;;;;;;19.98;17.15;;;;;;;4.75;44.18;102976.97;5071737;28;20912;-74
2022/01/24 08:36:31;;;;;;;23.70;20.38;;;;;;;5.11;43.96;102977.00;5071880;28;20418;-75
2022/01/24 08:39:05;;;;;;;21.55;18.90;;;;;;;4.56;44.08;102977.38;5071602;28;20985;-74
2022/01/24 08:41:43;;;;;;;21.75;18.80;;;;;;;4.99;43.48;102979.03;5071651;28;20473;-74
2022/01/24 08:44:20;;;;;;;23.80;20.33;;;;;;;4.71;43.84;102985.81;5071835;28;20510;-74
2022/01/24 08:46:48;;;;;;;24.90;21.25;;;;;;;4.27;43.99;102977.97;5055361;28;20982;-74
2022/01/24 08:49:15;;;;;;;25.60;20.35;;;;;;;4.37;43.82;102983.88;5071482;28;20497;-74
2022/01/24 08:51:43;;;;;;;24.90;20.00;;;;;;;4.15;44.23;102986.06;5071930;28;20442;-76
2022/01/24 08:54:10;;;;;;;24.23;20.58;;;;;;;4.12;44.38;102988.78;5071908;28;20498;-75
2022/01/24 08:56:39;;;;;;;23.75;20.58;;;;;;;3.78;45.09;102995.47;5071475;28;20491;-75
2022/01/24 08:59:06;;;;;;;22.05;19.58;;;;;;;4.11;44.75;102995.75;5071218;28;20510;-75
2022/01/24 09:01:33;;;;;;;22.00;19.33;;;;;;;3.56;45.69;102994.13;5071534;28;20414;-74
2022/01/24 09:04:00;;;;;;;21.42;18.52;;;;;;;3.59;45.28;102994.09;5071797;28;20486;-75
2022/01/24 09:06:28;;;;;;;24.30;20.20;;;;;;;3.72;45.49;102997.34;5071345;28;20493;-75
2022/01/24 09:08:59;;;;;;;20.80;18.10;;;;;;;3.84;45.14;102996.28;5071120;28;20419;-75
2022/01/24 09:11:30;;;;;;;103.13;82.05;;;;;;;4.69;43.41;103004.22;5071258;28;20493;-74
2022/01/24 09:13:59;;;;;;;47.58;37.13;;;;;;;6.08;40.59;103001.72;5071306;28;20464;-76
2022/01/24 09:16:26;;;;;;;22.42;19.50;;;;;;;8.01;37.45;102997.47;5070498;28;20406;-75
2022/01/24 09:18:54;;;;;;;22.40;19.10;;;;;;;9.73;34.64;103004.91;5071560;28;20521;-76
2022/01/24 09:21:22;;;;;;;21.10;18.90;;;;;;;9.66;33.92;103003.47;5070851;28;20415;-77
2022/01/24 09:23:49;;;;;;;18.30;16.42;;;;;;;12.22;30.30;103001.00;5070970;28;20502;-75
2022/01/24 09:26:17;;;;;;;16.88;15.18;;;;;;;12.99;28.99;103008.28;5071009;28;20498;-76
2022/01/24 09:28:44;;;;;;;16.98;15.27;;;;;;;12.54;28.80;102999.25;5070934;28;20411;-77
2022/01/24 09:31:13;;;;;;;20.75;18.65;;;;;;;11.26;30.47;102999.69;5070620;28;20770;-75
2022/01/24 09:33:40;;;;;;;21.27;18.97;;;;;;;11.41;29.95;102990.09;5071200;28;20414;-74
2022/01/24 09:36:07;;;;;;;22.10;19.70;;;;;;;12.40;28.74;102991.19;5070637;28;20410;-72
2022/01/24 09:38:36;;;;;;;27.75;24.85;;;;;;;14.67;26.89;102992.09;5070476;28;20951;-73
2022/01/24 09:41:05;;;;;;;28.33;25.38;;;;;;;15.93;25.01;102991.75;5070320;28;20407;-74
2022/01/24 09:43:33;;;;;;;31.80;28.60;;;;;;;15.05;25.71;102994.09;5070240;28;20498;-75
2022/01/24 09:46:00;;;;;;;27.60;24.77;;;;;;;15.32;24.98;102992.25;5070249;28;20411;-78
2022/01/24 09:48:30;;;;;;;31.05;27.75;;;;;;;17.50;23.19;102985.69;5070650;28;20482;-77
2022/01/24 09:50:57;;;;;;;36.20;32.30;;;;;;;18.06;22.40;102977.78;5070123;28;20490;-74
2022/01/24 09:53:26;;;;;;;32.47;28.45;;;;;;;18.05;22.12;102976.09;5070437;28;20493;-77
2022/01/24 09:55:53;;;;;;;25.48;22.88;;;;;;;17.84;21.88;102980.47;5070485;28;20407;-77
2022/01/24 09:58:21;;;;;;;39.05;33.25;;;;;;;16.20;23.09;102972.91;5070398;28;20426;-78
2022/01/24 10:00:48;;;;;;;33.35;28.92;;;;;;;15.07;24.10;102969.00;5070266;28;20421;-77
2022/01/24 10:03:15;;;;;;;31.40;28.10;;;;;;;17.69;21.67;102975.28;5070132;28;20497;-78
2022/01/24 10:05:52;;;;;;;25.73;23.23;;;;;;;15.80;22.95;102965.00;5070135;28;20912;-77
2022/01/24 10:08:19;;;;;;;34.50;30.80;;;;;;;14.03;25.21;102976.50;5070295;28;20460;-75
2022/01/24 10:10:51;;;;;;;42.77;38.17;;;;;;;12.77;26.42;102965.22;5069973;28;20419;-76
2022/01/24 10:16:25;;;;;;;23.42;20.92;;;;;;;11.59;28.33;102965.28;5070026;28;20531;-77
2022/01/24 10:19:04;;;;;;;33.20;28.63;;;;;;;11.17;29.14;102968.28;5069909;28;20442;-77
2022/01/24 10:21:37;;;;;;;25.38;22.58;;;;;;;11.06;29.50;102963.53;5069749;28;20418;-75
2022/01/24 10:24:05;;;;;;;27.65;23.27;;;;;;;11.15;29.64;102967.50;5067654;28;20505;-73
2022/01/24 10:26:32;;;;;;;23.65;19.65;;;;;;;10.66;29.70;102978.69;5067688;28;20414;-74
2022/01/24 10:28:59;;;;;;;25.85;22.92;;;;;;;10.89;29.68;102968.78;5064911;28;20407;-75
2022/01/24 10:31:29;;;;;;;32.35;28.98;;;;;;;11.77;29.27;102975.91;5065451;28;20490;-76
2022/01/24 10:34:03;;;;;;;23.33;21.00;;;;;;;10.81;30.03;102980.63;5068718;28;20430;-75
2022/01/24 10:36:41;;;;;;;20.67;18.65;;;;;;;11.92;28.57;102977.78;5068916;28;20419;-75
2022/01/24 10:39:22;;;;;;;21.17;19.07;;;;;;;12.72;27.66;102977.94;5068593;28;20474;-76
2022/01/24 10:42:25;;;;;;;20.00;18.02;;;;;;;13.06;26.63;102976.00;5068567;28;20446;-76
2022/01/24 10:44:53;;;;;;;20.52;18.45;;;;;;;12.70;26.54;102974.50;5069033;28;20418;-76
2022/01/24 10:47:23;;;;;;;18.65;16.85;;;;;;;12.41;27.74;102980.47;5069551;28;20896;-76
2022/01/24 10:49:52;;;;;;;17.70;16.05;;;;;;;12.49;27.40;102980.06;5068600;28;20418;-78
2022/01/24 10:52:22;;;;;;;17.15;15.48;;;;;;;13.47;26.47;102984.28;5069685;28;20415;-74
2022/01/24 10:54:51;;;;;;;20.60;18.25;;;;;;;15.27;24.33;102978.38;5067443;28;20473;-75
2022/01/24 10:57:24;;;;;;;38.92;34.83;;;;;;;17.15;22.21;102981.19;5069599;28;20411;-75
2022/01/24 10:59:52;;;;;;;75.63;67.40;;;;;;;15.49;23.72;102984.91;5066277;28;21034;-75
2022/01/24 11:02:19;;;;;;;21.27;19.02;;;;;;;15.60;23.24;102980.56;5048155;28;20485;-75
2022/01/24 11:04:46;;;;;;;20.85;18.75;;;;;;;15.26;23.18;102981.13;5066514;28;20502;-77
2022/01/24 11:07:13;;;;;;;19.75;17.75;;;;;;;15.10;22.81;102983.97;5068570;28;20447;-71
2022/01/24 11:09:41;;;;;;;21.15;18.98;;;;;;;13.65;25.18;102989.47;5068179;28;20800;-78
2022/01/24 11:12:12;;;;;;;17.55;15.75;;;;;;;12.79;25.62;102989.91;5068092;28;20459;-76
2022/01/24 11:14:40;;;;;;;21.75;19.65;;;;;;;13.90;23.98;102991.50;5070015;28;20410;-78
2022/01/24 11:17:09;;;;;;;19.05;17.20;;;;;;;12.79;25.46;102987.25;5047940;28;20429;-72
2022/01/24 11:19:41;;;;;;;22.83;20.50;;;;;;;11.50;26.99;102979.03;5067550;28;20610;-71
2022/01/24 11:22:19;;;;;;;28.20;25.50;;;;;;;11.48;26.82;102972.09;5066574;28;20422;-77
2022/01/24 11:24:53;;;;;;;18.60;16.70;;;;;;;10.83;27.77;102976.09;5067438;28;20411;-76
2022/01/24 11:27:21;;;;;;;15.43;13.82;;;;;;;10.56;27.86;102977.41;5067880;28;20585;-77
2022/01/24 11:29:52;;;;;;;16.80;15.00;;;;;;;10.31;28.73;102967.94;5067967;28;20784;-77
2022/01/24 11:32:25;;;;;;;20.15;18.08;;;;;;;10.09;29.31;102978.59;5067758;28;20429;-76
2022/01/24 11:34:54;;;;;;;32.28;29.15;;;;;;;9.55;30.06;102969.50;5067452;28;20776;-75
2022/01/24 11:37:38;;;;;;;30.30;27.33;;;;;;;8.52;31.54;102971.00;5067026;28;20469;-77
2022/01/24 11:40:11;;;;;;;26.33;23.50;;;;;;;8.27;31.75;102973.66;5067316;28;20442;-77
2022/01/24 11:42:40;;;;;;;26.52;23.85;;;;;;;8.41;31.53;102974.91;5068254;28;20491;-77
2022/01/24 11:45:13;;;;;;;23.77;21.25;;;;;;;8.51;31.48;102966.63;5067791;28;20411;-76
2022/01/24 11:47:41;;;;;;;31.52;28.23;;;;;;;8.07;31.03;102977.91;5069243;28;20504;-77
2022/01/24 11:50:36;;;;;;;49.10;44.07;;;;;;;7.86;31.56;102974.22;5067838;28;20501;-76
2022/01/24 11:53:21;;;;;;;48.97;44.53;;;;;;;7.65;31.13;102973.22;5067407;28;20418;-75
2022/01/24 11:55:51;;;;;;;60.10;55.00;;;;;;;7.90;30.34;102967.06;5067951;28;20426;-76
2022/01/24 11:58:24;;;;;;;15.93;14.23;;;;;;;8.54;29.25;102966.53;5067034;28;20861;-79
2022/01/24 12:00:57;;;;;;;18.08;16.27;;;;;;;8.96;28.18;102953.41;5067518;28;20435;-79
2022/01/24 12:03:27;;;;;;;17.83;15.93;;;;;;;8.67;28.75;102954.53;5050091;28;20427;-78
2022/01/24 12:05:56;;;;;;;14.45;12.95;;;;;;;8.20;29.33;102951.91;5067728;28;20442;-76
2022/01/24 12:08:32;;;;;;;15.65;14.05;;;;;;;7.97;29.70;102939.56;5071042;28;20415;-78
2022/01/24 12:11:18;;;;;;;16.40;14.70;;;;;;;7.97;29.43;102944.84;5069892;28;20508;-78
2022/01/24 12:13:47;;;;;;;16.73;15.00;;;;;;;7.64;29.55;102942.47;5068533;28;20415;-78
2022/01/24 12:16:15;;;;;;;21.20;18.65;;;;;;;7.46;30.23;102943.09;5070324;28;20411;-78
2022/01/24 12:19:02;;;;;;;12.93;11.63;;;;;;;6.71;30.74;102939.38;5071060;28;20572;-78
2022/01/24 12:21:31;;;;;;;21.45;19.40;;;;;;;6.52;31.73;102949.59;5071320;28;20464;-77
2022/01/24 12:24:01;;;;;;;11.95;10.73;;;;;;;6.74;30.23;102943.69;5070371;28;20406;-74
2022/01/24 12:26:35;;;;;;;13.20;11.80;;;;;;;7.10;30.24;102946.06;5071270;28;20446;-78
2022/01/24 12:29:05;;;;;;;15.35;13.75;;;;;;;7.09;30.41;102945.19;5070271;28;20498;-78